Andale, Kansas
Current Conditions -  °F | °C
As of 5:53 AM on Sunday 25 Jan 2015 (Local Time) from KICT Reporting Station
Overcast Overcast  
Wind Chill:   Ceiling: 7000
Heat Index:   Visibility: 10mi
Dew Point: -1°   Wind: 22mph
Humidity: 52%   Direction: 320°NW
Pressure: 29.85"   Gusts: 32mph
Location:  37.79°N, 97.63°W
Report Text: KICT 251153Z 32019G28KT 10SM FEW055 BKN070 OVC090 09/M01 A2985 RMK AO2 PK WND 31032/1131 SLP108 T00891006 10122 20083 53002
Loading
Personal Weather Stations






























Interactive Weather Map New forecast layout! Learn more

10-Day Weather Forecast

Advertisements
Track Severe Weather on mobile